Martin Challenger — WDB2346 — position and weather

sailwx.info

Track history (hours):
 
Tides and Currents Weather Stations Pressure Air Temp Water Temp Dewpoint Dewpoint Depression Visibility Wind Speed Wind Dir Waves Ship Positions

Martin Challenger

Owner: MARTIN OPERATING PARTNERSHIP LP, VIDOR, TX. More information available from US FCC via Universal Licensing System and Coast Guard Vessel Documentation Center.

Last reported at 2016-Jun-26 16:33 UTC. Time now 2016-Jun-26 17:23 UTC.
Position N 29°44' W 095°03'.

Length 20 m.

MMSI: 366874920.

Date/timePositionNaut miles runAvg speedWind from/ knotsBaromVisibWave heightAir tempDewpointWater temp
2016-Jun-26 16:33N 29°44' W 095°03'0 0.0
2016-Jun-26 15:34N 29°44' W 095°03'0 0.0
2016-Jun-26 14:34N 29°44' W 095°03'0 0.0
2016-Jun-26 13:33N 29°44' W 095°03'0 0.0
2016-Jun-26 12:33N 29°44' W 095°03'0 0.0
2016-Jun-26 11:33N 29°44' W 095°03'0 0.0
2016-Jun-26 10:33N 29°44' W 095°03'0 0.0
2016-Jun-26 09:33N 29°44' W 095°03'0 0.0
2016-Jun-26 08:33N 29°44' W 095°03'0 0.0
2016-Jun-26 07:33N 29°44' W 095°03'0 0.0
2016-Jun-26 06:34N 29°44' W 095°03'0 0.0
2016-Jun-26 05:34N 29°44' W 095°03'0 0.0
2016-Jun-26 04:33N 29°44' W 095°03'0 0.0
2016-Jun-26 03:33N 29°44' W 095°03'0 0.0
2016-Jun-26 02:33N 29°44' W 095°03'0 0.0
2016-Jun-26 01:33N 29°44' W 095°03'0 0.0
2016-Jun-26 00:34N 29°44' W 095°03'0 0.0
2016-Jun-25 23:33N 29°44' W 095°03'1 0.6
2016-Jun-25 22:34N 29°44' W 095°04'3 1.6
2016-Jun-25 20:33N 29°47' W 095°04'1 1.1
2016-Jun-25 19:33N 29°47' W 095°05'1 0.3
2016-Jun-25 14:09N 29°46' W 095°06'2 3.1
2016-Jun-25 13:31N 29°47' W 095°04'0 0.2
2016-Jun-25 12:33N 29°47' W 095°04'0 0.0
2016-Jun-25 11:31N 29°47' W 095°04'0 0.0
2016-Jun-25 10:34N 29°47' W 095°04'0 0.0
2016-Jun-25 09:30N 29°47' W 095°04'0 0.0
2016-Jun-25 08:34N 29°47' W 095°04'0 0.0
2016-Jun-25 07:34N 29°47' W 095°04'2 1.5
2016-Jun-25 06:32N 29°46' W 095°04'3 3.2
2016-Jun-25 05:33N 29°44' W 095°02'4 4.1
2016-Jun-25 04:33N 29°40' W 094°59'4 4.5
2016-Jun-25 03:33N 29°36' W 094°57'5 4.5
2016-Jun-25 02:32N 29°32' W 094°54'10 0.6
2016-Jun-24 08:27N 29°22' W 094°51'1 0.0
2016-Jun-22 08:17N 29°23' W 094°52'3 0.3
2016-Jun-21 21:33N 29°24' W 094°49'5 5.4
2016-Jun-21 20:32N 29°29' W 094°52'5 5.0
2016-Jun-21 19:33N 29°33' W 094°55'5 4.9
2016-Jun-21 18:33N 29°37' W 094°58'5 5.0
2016-Jun-21 17:33N 29°42' W 094°60'3 2.5
2016-Jun-21 16:33N 29°44' W 095°01'0 0.1
2016-Jun-21 15:33N 29°44' W 095°01'0 0.0
2016-Jun-21 14:33N 29°44' W 095°01'0 0.0
2016-Jun-21 13:31N 29°44' W 095°01'0 0.0
2016-Jun-21 12:32N 29°44' W 095°01'0 0.0
2016-Jun-21 11:32N 29°44' W 095°01'0 0.0
2016-Jun-21 10:32N 29°44' W 095°01'0 0.0
2016-Jun-21 09:27N 29°44' W 095°01'0 0.0
2016-Jun-21 08:32N 29°44' W 095°01'0 0.0
2016-Jun-21 07:33N 29°44' W 095°01'0 0.0
2016-Jun-21 02:30N 29°44' W 095°01'0 0.0
2016-Jun-21 01:33N 29°44' W 095°01'0 0.0
2016-Jun-21 00:32N 29°44' W 095°01'0 0.1
2016-Jun-20 23:33N 29°44' W 095°01'0 0.0
2016-Jun-20 22:32N 29°44' W 095°01'0 0.0
2016-Jun-20 21:33N 29°44' W 095°01'0 0.0
2016-Jun-20 20:33N 29°44' W 095°01'0 0.0
2016-Jun-20 19:34N 29°44' W 095°01'0 0.0
2016-Jun-20 18:32N 29°44' W 095°01'0 0.0
2016-Jun-20 17:33N 29°44' W 095°01'0 0.0
2016-Jun-20 16:33N 29°44' W 095°01'0 0.0
2016-Jun-20 15:34N 29°44' W 095°01'0 0.0
2016-Jun-20 14:31N 29°44' W 095°01'0 0.0
2016-Jun-20 13:33N 29°44' W 095°01'0 0.0
2016-Jun-20 12:34N 29°44' W 095°01'0 0.0
2016-Jun-20 11:33N 29°44' W 095°01'0 0.0
2016-Jun-20 10:33N 29°44' W 095°01'0 0.0
2016-Jun-20 09:33N 29°44' W 095°01'0 0.2
2016-Jun-20 08:34N 29°44' W 095°01'1 1.5
2016-Jun-20 07:33N 29°44' W 095°03'3 2.4
2016-Jun-20 06:14N 29°47' W 095°04'0 0.2
2016-Jun-20 05:25N 29°47' W 095°04'2 0.6
2016-Jun-20 01:29N 29°46' W 095°06'6 5.6
2016-Jun-20 00:21N 29°44' W 095°13'2 0.2
2016-Jun-19 13:19N 29°45' W 095°11'5 6.1
2016-Jun-19 12:33N 29°46' W 095°05'1 0.1
2016-Jun-19 01:26N 29°46' W 095°06'0 0.0
2016-Jun-18 23:33N 29°46' W 095°06'0 0.0
2016-Jun-18 21:13N 29°46' W 095°06'0 0.0
2016-Jun-18 20:33N 29°46' W 095°06'0 0.0
2016-Jun-18 15:19N 29°46' W 095°06'1 1.8
2016-Jun-18 14:33N 29°47' W 095°05'1 0.6
2016-Jun-18 13:11N 29°47' W 095°04'1 1.8
2016-Jun-18 12:31N 29°46' W 095°05'3 2.9
2016-Jun-18 11:32N 29°44' W 095°03'0 0.0
2016-Jun-18 10:31N 29°44' W 095°03'0 0.0
2016-Jun-18 09:33N 29°44' W 095°03'0 0.0
2016-Jun-18 08:32N 29°44' W 095°03'0 0.0
2016-Jun-18 07:33N 29°44' W 095°03'0 0.0
2016-Jun-18 06:33N 29°44' W 095°03'0 0.0
2016-Jun-18 05:32N 29°44' W 095°03'0 0.0
2016-Jun-18 04:29N 29°44' W 095°03'0 0.0
2016-Jun-18 03:31N 29°44' W 095°03'0 0.0
2016-Jun-18 02:33N 29°44' W 095°03'0 0.0
2016-Jun-18 01:33N 29°44' W 095°03'0 0.1
2016-Jun-18 00:32N 29°44' W 095°03'0 0.0
2016-Jun-17 23:31N 29°44' W 095°03'0 0.0
2016-Jun-17 22:33N 29°44' W 095°03'0 0.0
2016-Jun-17 21:33N 29°44' W 095°03'0 0.0
2016-Jun-17 20:32N 29°44' W 095°03'0 0.0
2016-Jun-17 19:33N 29°44' W 095°03'0 0.0
2016-Jun-17 18:32N 29°44' W 095°03'0 0.0
2016-Jun-17 17:33N 29°44' W 095°03'0 0.0
2016-Jun-17 16:20N 29°44' W 095°03'0 0.0
2016-Jun-17 15:33N 29°44' W 095°03'0 0.0
2016-Jun-17 14:33N 29°44' W 095°03'0 0.0
2016-Jun-17 13:33N 29°44' W 095°03'0 0.0
2016-Jun-17 12:34N 29°44' W 095°03'0 0.0
2016-Jun-17 11:34N 29°44' W 095°03'0 0.0
2016-Jun-17 10:33N 29°44' W 095°03'0 0.0
2016-Jun-17 09:33N 29°44' W 095°03'0 0.0
2016-Jun-17 08:24N 29°44' W 095°03'0 0.0
2016-Jun-17 07:32N 29°44' W 095°03'0 0.0
2016-Jun-17 06:33N 29°44' W 095°03'0 0.0
2016-Jun-17 05:34N 29°44' W 095°03'0 0.0
2016-Jun-17 04:30N 29°44' W 095°03'0 0.0
2016-Jun-17 03:33N 29°44' W 095°03'3 2.8
2016-Jun-17 02:33N 29°42' W 095°00'4 3.6
2016-Jun-17 01:33N 29°39' W 094°58'4 4.4
2016-Jun-17 00:34N 29°35' W 094°56'4 4.3
2016-Jun-16 23:33N 29°32' W 094°53'  
Track history (hours):
 
Tides and Currents Weather Stations Pressure Air Temp Water Temp Dewpoint Dewpoint Depression Visibility Wind Speed Wind Dir Waves Ship Positions

Martin Challenger

Owner: MARTIN OPERATING PARTNERSHIP LP, VIDOR, TX. More information available from US FCC via Universal Licensing System and Coast Guard Vessel Documentation Center.

Last reported at 2016-Jun-26 16:33 UTC. Time now 2016-Jun-26 17:23 UTC.
Position N 29°44' W 095°03'.

Length 20 m.

MMSI: 366874920.

Date/timePositionNaut miles runAvg speedWind from/ knotsBaromVisibWave heightAir tempDewpointWater temp
2016-Jun-26 16:33N 29°44' W 095°03'0 0.0
2016-Jun-26 15:34N 29°44' W 095°03'0 0.0
2016-Jun-26 14:34N 29°44' W 095°03'0 0.0
2016-Jun-26 13:33N 29°44' W 095°03'0 0.0
2016-Jun-26 12:33N 29°44' W 095°03'0 0.0
2016-Jun-26 11:33N 29°44' W 095°03'0 0.0
2016-Jun-26 10:33N 29°44' W 095°03'0 0.0
2016-Jun-26 09:33N 29°44' W 095°03'0 0.0
2016-Jun-26 08:33N 29°44' W 095°03'0 0.0
2016-Jun-26 07:33N 29°44' W 095°03'0 0.0
2016-Jun-26 06:34N 29°44' W 095°03'0 0.0
2016-Jun-26 05:34N 29°44' W 095°03'0 0.0
2016-Jun-26 04:33N 29°44' W 095°03'0 0.0
2016-Jun-26 03:33N 29°44' W 095°03'0 0.0
2016-Jun-26 02:33N 29°44' W 095°03'0 0.0
2016-Jun-26 01:33N 29°44' W 095°03'0 0.0
2016-Jun-26 00:34N 29°44' W 095°03'0 0.0
2016-Jun-25 23:33N 29°44' W 095°03'1 0.6
2016-Jun-25 22:34N 29°44' W 095°04'3 1.6
2016-Jun-25 20:33N 29°47' W 095°04'1 1.1
2016-Jun-25 19:33N 29°47' W 095°05'1 0.3
2016-Jun-25 14:09N 29°46' W 095°06'2 3.1
2016-Jun-25 13:31N 29°47' W 095°04'0 0.2
2016-Jun-25 12:33N 29°47' W 095°04'0 0.0
2016-Jun-25 11:31N 29°47' W 095°04'0 0.0
2016-Jun-25 10:34N 29°47' W 095°04'0 0.0
2016-Jun-25 09:30N 29°47' W 095°04'0 0.0
2016-Jun-25 08:34N 29°47' W 095°04'0 0.0
2016-Jun-25 07:34N 29°47' W 095°04'2 1.5
2016-Jun-25 06:32N 29°46' W 095°04'3 3.2
2016-Jun-25 05:33N 29°44' W 095°02'4 4.1
2016-Jun-25 04:33N 29°40' W 094°59'4 4.5
2016-Jun-25 03:33N 29°36' W 094°57'5 4.5
2016-Jun-25 02:32N 29°32' W 094°54'10 0.6
2016-Jun-24 08:27N 29°22' W 094°51'1 0.0
2016-Jun-22 08:17N 29°23' W 094°52'3 0.3
2016-Jun-21 21:33N 29°24' W 094°49'5 5.4
2016-Jun-21 20:32N 29°29' W 094°52'5 5.0
2016-Jun-21 19:33N 29°33' W 094°55'5 4.9
2016-Jun-21 18:33N 29°37' W 094°58'5 5.0
2016-Jun-21 17:33N 29°42' W 094°60'3 2.5
2016-Jun-21 16:33N 29°44' W 095°01'0 0.1
2016-Jun-21 15:33N 29°44' W 095°01'0 0.0
2016-Jun-21 14:33N 29°44' W 095°01'0 0.0
2016-Jun-21 13:31N 29°44' W 095°01'0 0.0
2016-Jun-21 12:32N 29°44' W 095°01'0 0.0
2016-Jun-21 11:32N 29°44' W 095°01'0 0.0
2016-Jun-21 10:32N 29°44' W 095°01'0 0.0
2016-Jun-21 09:27N 29°44' W 095°01'0 0.0
2016-Jun-21 08:32N 29°44' W 095°01'0 0.0
2016-Jun-21 07:33N 29°44' W 095°01'0 0.0
2016-Jun-21 02:30N 29°44' W 095°01'0 0.0
2016-Jun-21 01:33N 29°44' W 095°01'0 0.0
2016-Jun-21 00:32N 29°44' W 095°01'0 0.1
2016-Jun-20 23:33N 29°44' W 095°01'0 0.0
2016-Jun-20 22:32N 29°44' W 095°01'0 0.0
2016-Jun-20 21:33N 29°44' W 095°01'0 0.0
2016-Jun-20 20:33N 29°44' W 095°01'0 0.0
2016-Jun-20 19:34N 29°44' W 095°01'0 0.0
2016-Jun-20 18:32N 29°44' W 095°01'0 0.0
2016-Jun-20 17:33N 29°44' W 095°01'0 0.0
2016-Jun-20 16:33N 29°44' W 095°01'0 0.0
2016-Jun-20 15:34N 29°44' W 095°01'0 0.0
2016-Jun-20 14:31N 29°44' W 095°01'0 0.0
2016-Jun-20 13:33N 29°44' W 095°01'0 0.0
2016-Jun-20 12:34N 29°44' W 095°01'0 0.0
2016-Jun-20 11:33N 29°44' W 095°01'0 0.0
2016-Jun-20 10:33N 29°44' W 095°01'0 0.0
2016-Jun-20 09:33N 29°44' W 095°01'0 0.2
2016-Jun-20 08:34N 29°44' W 095°01'1 1.5
2016-Jun-20 07:33N 29°44' W 095°03'3 2.4
2016-Jun-20 06:14N 29°47' W 095°04'0 0.2
2016-Jun-20 05:25N 29°47' W 095°04'2 0.6
2016-Jun-20 01:29N 29°46' W 095°06'6 5.6
2016-Jun-20 00:21N 29°44' W 095°13'2 0.2
2016-Jun-19 13:19N 29°45' W 095°11'5 6.1
2016-Jun-19 12:33N 29°46' W 095°05'1 0.1
2016-Jun-19 01:26N 29°46' W 095°06'0 0.0
2016-Jun-18 23:33N 29°46' W 095°06'0 0.0
2016-Jun-18 21:13N 29°46' W 095°06'0 0.0
2016-Jun-18 20:33N 29°46' W 095°06'0 0.0
2016-Jun-18 15:19N 29°46' W 095°06'1 1.8
2016-Jun-18 14:33N 29°47' W 095°05'1 0.6
2016-Jun-18 13:11N 29°47' W 095°04'1 1.8
2016-Jun-18 12:31N 29°46' W 095°05'3 2.9
2016-Jun-18 11:32N 29°44' W 095°03'0 0.0
2016-Jun-18 10:31N 29°44' W 095°03'0 0.0
2016-Jun-18 09:33N 29°44' W 095°03'0 0.0
2016-Jun-18 08:32N 29°44' W 095°03'0 0.0
2016-Jun-18 07:33N 29°44' W 095°03'0 0.0
2016-Jun-18 06:33N 29°44' W 095°03'0 0.0
2016-Jun-18 05:32N 29°44' W 095°03'0 0.0
2016-Jun-18 04:29N 29°44' W 095°03'0 0.0
2016-Jun-18 03:31N 29°44' W 095°03'0 0.0
2016-Jun-18 02:33N 29°44' W 095°03'0 0.0
2016-Jun-18 01:33N 29°44' W 095°03'0 0.1
2016-Jun-18 00:32N 29°44' W 095°03'0 0.0
2016-Jun-17 23:31N 29°44' W 095°03'0 0.0
2016-Jun-17 22:33N 29°44' W 095°03'0 0.0
2016-Jun-17 21:33N 29°44' W 095°03'0 0.0
2016-Jun-17 20:32N 29°44' W 095°03'0 0.0
2016-Jun-17 19:33N 29°44' W 095°03'0 0.0
2016-Jun-17 18:32N 29°44' W 095°03'0 0.0
2016-Jun-17 17:33N 29°44' W 095°03'0 0.0
2016-Jun-17 16:20N 29°44' W 095°03'0 0.0
2016-Jun-17 15:33N 29°44' W 095°03'0 0.0
2016-Jun-17 14:33N 29°44' W 095°03'0 0.0
2016-Jun-17 13:33N 29°44' W 095°03'0 0.0
2016-Jun-17 12:34N 29°44' W 095°03'0 0.0
2016-Jun-17 11:34N 29°44' W 095°03'0 0.0
2016-Jun-17 10:33N 29°44' W 095°03'0 0.0
2016-Jun-17 09:33N 29°44' W 095°03'0 0.0
2016-Jun-17 08:24N 29°44' W 095°03'0 0.0
2016-Jun-17 07:32N 29°44' W 095°03'0 0.0
2016-Jun-17 06:33N 29°44' W 095°03'0 0.0
2016-Jun-17 05:34N 29°44' W 095°03'0 0.0
2016-Jun-17 04:30N 29°44' W 095°03'0 0.0
2016-Jun-17 03:33N 29°44' W 095°03'3 2.8
2016-Jun-17 02:33N 29°42' W 095°00'4 3.6
2016-Jun-17 01:33N 29°39' W 094°58'4 4.4
2016-Jun-17 00:34N 29°35' W 094°56'4 4.3
2016-Jun-16 23:33N 29°32' W 094°53'  

Dump ship's entire track history